Time;durP1;ratioP1;P1;durP2;ratioP2;P2;SDS_P1;SDS_P2;PMS_P1;PMS_P2;Temp;Humidity;BMP_temperature;BMP_pressure;BME280_temperature;BME280_humidity;BME280_pressure;Samples;Min_cycle;Max_cycle;Signal;HPM_P1;HPM_P2
2021/01/13 00:01:59;;;;;;;3.83;1.20;;;2.50;99.90;;;;;;5057280;28;20050;-83
2021/01/13 00:04:24;;;;;;;8.15;1.35;;;2.50;99.90;;;;;;5056078;28;20029;-82
2021/01/13 00:06:50;;;;;;;8.57;2.03;;;2.50;99.90;;;;;;5052963;28;20390;-83
2021/01/13 00:09:15;;;;;;;7.95;1.65;;;2.50;99.90;;;;;;5061448;28;20025;-83
2021/01/13 00:11:41;;;;;;;5.70;1.60;;;2.40;99.90;;;;;;5066041;28;20017;-83
2021/01/13 00:14:07;;;;;;;5.43;1.60;;;2.40;99.90;;;;;;5053092;28;20049;-84
2021/01/13 00:16:33;;;;;;;5.72;1.30;;;2.30;99.90;;;;;;5056328;28;20099;-83
2021/01/13 00:18:58;;;;;;;3.72;1.45;;;2.20;99.90;;;;;;5065813;28;20483;-83
2021/01/13 00:21:24;;;;;;;6.55;1.33;;;2.30;99.90;;;;;;5058553;28;20741;-83
2021/01/13 00:23:49;;;;;;;5.47;1.20;;;2.30;99.90;;;;;;5060027;28;20123;-83
2021/01/13 00:26:24;;;;;;;4.85;1.40;;;2.30;99.90;;;;;;5060922;28;20021;-83
2021/01/13 00:28:51;;;;;;;5.88;1.35;;;2.30;99.90;;;;;;5056134;28;20024;-83
2021/01/13 00:31:17;;;;;;;3.40;1.33;;;2.30;99.90;;;;;;5061220;28;20032;-82
2021/01/13 00:33:47;;;;;;;7.00;1.58;;;2.20;99.90;;;;;;5068578;28;20398;-82
2021/01/13 00:36:17;;;;;;;6.60;1.48;;;2.20;99.90;;;;;;5056610;28;20039;-83
2021/01/13 00:38:43;;;;;;;10.50;1.77;;;2.30;99.90;;;;;;5053993;28;20021;-83
2021/01/13 00:41:11;;;;;;;6.70;1.20;;;2.30;99.90;;;;;;5068512;28;20495;-82
2021/01/13 00:43:36;;;;;;;5.13;0.95;;;2.30;99.90;;;;;;5059043;28;20396;-83
2021/01/13 00:46:02;;;;;;;7.97;1.40;;;2.30;99.90;;;;;;5064226;28;20475;-83
2021/01/13 00:48:27;;;;;;;4.18;1.20;;;2.30;99.90;;;;;;5052699;28;20497;-83
2021/01/13 00:50:53;;;;;;;9.30;1.77;;;2.30;99.90;;;;;;5055625;28;20047;-83
2021/01/13 00:53:20;;;;;;;2.90;1.15;;;2.30;99.90;;;;;;5057916;28;20048;-84
2021/01/13 00:55:46;;;;;;;4.40;1.30;;;2.30;99.90;;;;;;5050777;28;20396;-82
2021/01/13 00:58:11;;;;;;;4.18;0.98;;;2.30;99.90;;;;;;5052489;28;20031;-83
2021/01/13 01:00:37;;;;;;;6.55;1.55;;;2.30;99.90;;;;;;5052671;28;20587;-83
2021/01/13 01:03:03;;;;;;;5.10;1.17;;;2.30;99.90;;;;;;5059434;28;20026;-83
2021/01/13 01:05:28;;;;;;;4.70;1.40;;;2.40;99.90;;;;;;5061417;28;20541;-83
2021/01/13 01:07:53;;;;;;;6.60;1.33;;;2.40;99.90;;;;;;5053494;28;20104;-83
2021/01/13 01:10:26;;;;;;;4.05;1.10;;;2.40;99.90;;;;;;5053420;28;20025;-83
2021/01/13 01:12:51;;;;;;;5.78;1.25;;;2.40;99.90;;;;;;5056786;28;20044;-82
2021/01/13 01:15:17;;;;;;;3.58;1.02;;;2.40;99.90;;;;;;5051269;28;20376;-82
2021/01/13 01:17:42;;;;;;;8.35;1.27;;;2.40;99.90;;;;;;5067036;28;20071;-83
2021/01/13 01:20:08;;;;;;;5.35;1.55;;;2.30;99.90;;;;;;5054265;28;20077;-82
2021/01/13 01:22:34;;;;;;;6.15;1.58;;;2.40;99.90;;;;;;5054175;28;20454;-83
2021/01/13 01:24:59;;;;;;;9.52;1.25;;;2.30;99.90;;;;;;5059998;28;20052;-83
2021/01/13 01:27:25;;;;;;;6.57;1.58;;;2.30;99.90;;;;;;5048946;28;20025;-82
2021/01/13 01:29:50;;;;;;;2.50;1.10;;;2.30;99.90;;;;;;5055819;28;20375;-83
2021/01/13 01:32:16;;;;;;;4.00;1.33;;;2.30;99.90;;;;;;5056013;28;20039;-82
2021/01/13 01:34:41;;;;;;;5.85;1.67;;;2.30;99.90;;;;;;5058315;28;20565;-83
2021/01/13 01:37:07;;;;;;;5.97;1.23;;;2.20;99.90;;;;;;5056153;28;20024;-83
2021/01/13 01:39:32;;;;;;;3.70;1.10;;;2.20;99.90;;;;;;5049985;28;20040;-82
2021/01/13 01:41:57;;;;;;;8.07;1.65;;;2.20;99.90;;;;;;5059911;28;20052;-82
2021/01/13 01:44:23;;;;;;;8.00;1.67;;;2.30;99.90;;;;;;5057551;28;20029;-82
2021/01/13 01:46:55;;;;;;;6.55;1.73;;;2.30;99.90;;;;;;5059259;28;20561;-82
2021/01/13 01:49:22;;;;;;;7.82;1.80;;;2.40;99.90;;;;;;5059855;28;20054;-82
2021/01/13 01:52:11;;;;;;;7.57;1.65;;;2.40;99.90;;;;;;5055175;28;20029;-82
2021/01/13 01:54:42;;;;;;;8.85;1.50;;;2.50;99.90;;;;;;5049844;28;20290;-82
2021/01/13 01:57:11;;;;;;;12.32;1.95;;;2.50;99.90;;;;;;5063824;28;20036;-83
2021/01/13 01:59:47;;;;;;;4.90;1.48;;;2.50;99.90;;;;;;5057053;28;20032;-84
2021/01/13 02:02:15;;;;;;;7.90;1.52;;;2.50;99.90;;;;;;5052389;28;20025;-83
2021/01/13 02:04:47;;;;;;;4.40;1.42;;;2.50;99.90;;;;;;5049654;28;20025;-83
2021/01/13 02:07:13;;;;;;;9.32;1.45;;;2.60;99.90;;;;;;5049329;28;20407;-81
2021/01/13 02:09:38;;;;;;;7.90;1.80;;;2.50;99.90;;;;;;5056166;28;20032;-83
2021/01/13 02:12:12;;;;;;;6.80;1.90;;;2.60;99.90;;;;;;5058269;28;20029;-83
2021/01/13 02:14:41;;;;;;;8.93;1.63;;;2.50;99.90;;;;;;5048266;28;20750;-82
2021/01/13 02:17:09;;;;;;;5.38;2.08;;;2.60;99.90;;;;;;5051860;28;20040;-81
2021/01/13 02:19:49;;;;;;;12.05;2.10;;;2.60;99.90;;;;;;5058654;28;20029;-82
2021/01/13 02:22:19;;;;;;;4.55;1.95;;;2.60;99.90;;;;;;5053480;28;20021;-82
2021/01/13 02:25:15;;;;;;;7.95;1.88;;;2.60;99.90;;;;;;5048421;28;20033;-82
2021/01/13 02:28:03;;;;;;;4.70;2.08;;;2.70;99.90;;;;;;5061814;28;20051;-83
2021/01/13 02:30:35;;;;;;;11.55;1.70;;;2.70;99.90;;;;;;5061241;28;20056;-82
2021/01/13 02:33:07;;;;;;;12.25;2.38;;;2.80;99.90;;;;;;5053504;28;20033;-83
2021/01/13 02:36:06;;;;;;;7.30;1.95;;;2.80;99.90;;;;;;5060651;28;20024;-83
2021/01/13 02:38:33;;;;;;;5.63;1.58;;;2.80;99.90;;;;;;5060087;28;20025;-83
2021/01/13 02:40:59;;;;;;;6.28;1.65;;;2.70;99.90;;;;;;5056169;28;20546;-83
2021/01/13 02:43:29;;;;;;;7.13;2.30;;;2.70;99.90;;;;;;5050009;28;20132;-82
2021/01/13 02:45:58;;;;;;;7.57;1.67;;;2.80;99.90;;;;;;5056732;28;20052;-82
2021/01/13 02:48:24;;;;;;;8.30;1.85;;;2.90;99.90;;;;;;5063745;28;20036;-82
2021/01/13 02:50:54;;;;;;;9.75;2.30;;;2.80;99.90;;;;;;5054917;28;20108;-83
2021/01/13 02:53:20;;;;;;;7.07;1.73;;;2.80;99.90;;;;;;5050682;28;20029;-82
2021/01/13 02:55:48;;;;;;;10.57;2.58;;;2.80;99.90;;;;;;5058436;28;20489;-82
2021/01/13 02:58:20;;;;;;;7.15;1.52;;;2.90;99.90;;;;;;5049357;28;20029;-82
2021/01/13 03:00:45;;;;;;;4.25;1.52;;;2.90;99.90;;;;;;5056554;28;20035;-83
2021/01/13 03:03:14;;;;;;;7.53;1.77;;;2.90;99.90;;;;;;5059102;28;20020;-83
2021/01/13 03:05:39;;;;;;;3.78;1.60;;;2.90;99.90;;;;;;5053400;28;20025;-82
2021/01/13 03:08:07;;;;;;;8.80;1.60;;;2.90;99.90;;;;;;5059392;28;20030;-83
2021/01/13 03:10:36;;;;;;;4.18;1.42;;;2.90;99.90;;;;;;5057258;28;20025;-83
2021/01/13 03:13:04;;;;;;;7.97;1.75;;;2.90;99.90;;;;;;5049624;28;20523;-83
2021/01/13 03:15:31;;;;;;;7.15;1.80;;;2.90;99.90;;;;;;5057159;28;20125;-82
2021/01/13 03:18:21;;;;;;;8.02;1.88;;;2.90;99.90;;;;;;5056328;28;20693;-82
2021/01/13 03:21:04;;;;;;;6.07;1.70;;;3.00;99.90;;;;;;5048765;28;20033;-84
2021/01/13 03:23:44;;;;;;;6.50;1.77;;;3.00;99.90;;;;;;5053368;28;20040;-82
2021/01/13 03:26:15;;;;;;;5.68;1.42;;;3.00;99.90;;;;;;5051127;28;20142;-83
2021/01/13 03:28:41;;;;;;;9.82;1.58;;;2.90;99.90;;;;;;5052691;28;20036;-83
2021/01/13 03:31:09;;;;;;;4.50;1.85;;;2.90;99.90;;;;;;5064450;28;20029;-82
2021/01/13 03:34:03;;;;;;;6.97;2.10;;;2.80;99.90;;;;;;5055883;28;20033;-82
2021/01/13 03:36:56;;;;;;;8.65;1.75;;;2.80;99.90;;;;;;5055707;28;20147;-82
2021/01/13 03:39:22;;;;;;;5.80;1.65;;;2.80;99.90;;;;;;5052349;28;20055;-82
2021/01/13 03:41:54;;;;;;;4.22;1.33;;;2.90;99.90;;;;;;5060853;28;20036;-81
2021/01/13 03:44:31;;;;;;;4.43;1.83;;;2.90;99.90;;;;;;5058183;28;20044;-82
2021/01/13 03:47:18;;;;;;;8.38;1.95;;;3.00;99.90;;;;;;5051701;28;20029;-82
2021/01/13 03:50:17;;;;;;;5.05;1.67;;;3.00;99.90;;;;;;5057274;28;20068;-82
2021/01/13 03:52:57;;;;;;;6.03;1.65;;;3.00;99.90;;;;;;5061758;28;20036;-84
2021/01/13 03:55:34;;;;;;;9.50;1.75;;;3.00;99.90;;;;;;5053052;28;20029;-82
2021/01/13 03:58:08;;;;;;;5.43;1.50;;;3.00;99.90;;;;;;5050476;28;20463;-83
2021/01/13 04:00:59;;;;;;;6.47;1.73;;;2.90;99.90;;;;;;5066131;28;20471;-83
2021/01/13 04:03:30;;;;;;;5.18;1.55;;;2.90;99.90;;;;;;5056049;28;20037;-82
2021/01/13 04:06:08;;;;;;;8.10;2.15;;;3.00;99.90;;;;;;5055683;28;20497;-82
2021/01/13 04:08:40;;;;;;;8.57;1.90;;;3.00;99.90;;;;;;5056003;28;20414;-82
2021/01/13 04:11:14;;;;;;;5.15;1.80;;;3.00;99.90;;;;;;5056311;28;20751;-82
2021/01/13 04:13:45;;;;;;;6.05;1.90;;;3.00;99.90;;;;;;5056850;28;20032;-83
2021/01/13 04:16:14;;;;;;;7.90;1.80;;;3.00;99.90;;;;;;5051565;28;20025;-83
2021/01/13 04:18:41;;;;;;;7.68;2.25;;;3.10;99.90;;;;;;5052994;28;20080;-83
2021/01/13 04:21:09;;;;;;;7.97;1.75;;;3.10;99.90;;;;;;5063279;28;20056;-84
2021/01/13 04:23:35;;;;;;;7.55;1.75;;;3.00;99.90;;;;;;5057397;28;20040;-83
2021/01/13 04:26:01;;;;;;;5.03;1.85;;;3.00;99.90;;;;;;5069659;28;20025;-83
2021/01/13 04:28:27;;;;;;;3.28;1.85;;;3.00;99.90;;;;;;5055355;28;20021;-82
2021/01/13 04:30:54;;;;;;;6.97;1.80;;;3.00;99.90;;;;;;5051299;28;20033;-83
2021/01/13 04:33:20;;;;;;;9.32;1.77;;;3.00;99.90;;;;;;5058637;28;20017;-83
2021/01/13 04:35:46;;;;;;;6.82;1.95;;;3.00;99.90;;;;;;5051651;28;20032;-83
2021/01/13 04:38:16;;;;;;;10.35;2.13;;;3.00;99.90;;;;;;5064101;28;20049;-83
2021/01/13 04:40:49;;;;;;;4.72;2.33;;;3.00;99.90;;;;;;5061765;28;20028;-85
2021/01/13 04:43:20;;;;;;;7.03;1.73;;;3.00;99.90;;;;;;5053167;28;20078;-83
2021/01/13 04:45:47;;;;;;;5.18;1.88;;;3.00;99.90;;;;;;5057168;28;20027;-83
2021/01/13 04:48:15;;;;;;;4.97;1.80;;;3.00;99.90;;;;;;5052614;28;20033;-83
2021/01/13 04:50:46;;;;;;;5.60;2.20;;;3.00;99.90;;;;;;5061898;28;20063;-84
2021/01/13 04:53:14;;;;;;;5.55;1.75;;;3.00;99.90;;;;;;5059169;28;20044;-83
2021/01/13 04:55:51;;;;;;;5.78;2.30;;;3.00;99.90;;;;;;5063542;28;20026;-84
2021/01/13 04:59:00;;;;;;;12.90;2.17;;;3.00;99.90;;;;;;5053639;28;20059;-84
2021/01/13 05:02:03;;;;;;;10.10;2.33;;;2.90;99.90;;;;;;5059833;28;20021;-84
2021/01/13 05:04:59;;;;;;;8.45;2.33;;;3.00;99.90;;;;;;5059943;28;20060;-84
2021/01/13 05:07:32;;;;;;;7.72;1.77;;;3.00;99.90;;;;;;5056297;28;20786;-84
2021/01/13 05:10:01;;;;;;;8.95;2.10;;;2.90;99.90;;;;;;5061099;28;20033;-84
2021/01/13 05:12:42;;;;;;;6.85;1.90;;;2.90;99.90;;;;;;5056284;28;20028;-83
2021/01/13 05:15:12;;;;;;;4.82;2.10;;;2.80;99.90;;;;;;5059254;28;20078;-83
2021/01/13 05:17:54;;;;;;;9.40;2.25;;;2.90;99.90;;;;;;5054475;28;20589;-84
2021/01/13 05:20:26;;;;;;;6.15;1.90;;;2.90;99.90;;;;;;5052770;28;20063;-85
2021/01/13 05:22:53;;;;;;;7.43;1.75;;;3.00;99.90;;;;;;5050389;28;20067;-84
2021/01/13 05:25:38;;;;;;;4.60;1.95;;;3.00;99.90;;;;;;5050737;28;20033;-83
2021/01/13 05:28:13;;;;;;;3.88;1.90;;;2.90;99.90;;;;;;5058637;28;20109;-83
2021/01/13 05:30:42;;;;;;;6.60;2.15;;;2.90;99.90;;;;;;5052741;28;20033;-84
2021/01/13 05:33:11;;;;;;;7.13;1.73;;;2.80;99.90;;;;;;5055248;28;20028;-85
2021/01/13 05:35:40;;;;;;;7.40;2.28;;;2.80;99.90;;;;;;5054580;28;20036;-83
2021/01/13 05:38:13;;;;;;;7.63;2.17;;;2.80;99.90;;;;;;5061784;28;20032;-83
2021/01/13 05:40:42;;;;;;;19.13;2.50;;;2.80;99.90;;;;;;5049293;28;20056;-83
2021/01/13 05:43:08;;;;;;;7.13;1.77;;;2.80;99.90;;;;;;5051249;28;20044;-83
2021/01/13 05:45:38;;;;;;;11.57;2.15;;;2.90;99.90;;;;;;5057001;28;20417;-83
2021/01/13 05:48:12;;;;;;;11.02;1.85;;;2.80;99.90;;;;;;5060024;28;20127;-84
2021/01/13 05:50:38;;;;;;;10.50;2.30;;;2.80;99.90;;;;;;5054966;28;20041;-82
2021/01/13 05:53:06;;;;;;;7.15;2.00;;;2.80;99.90;;;;;;5057205;28;20029;-83
2021/01/13 05:55:32;;;;;;;6.75;1.85;;;2.80;99.90;;;;;;5053151;28;20029;-82
2021/01/13 05:58:02;;;;;;;7.25;2.10;;;2.80;99.90;;;;;;5051074;28;20025;-81
2021/01/13 06:00:30;;;;;;;5.10;2.00;;;2.90;99.90;;;;;;5061905;28;20047;-85
2021/01/13 06:03:01;;;;;;;6.30;2.03;;;2.80;99.90;;;;;;5058049;28;20036;-84
2021/01/13 06:05:33;;;;;;;6.95;2.25;;;2.80;99.90;;;;;;5049738;28;20521;-84
2021/01/13 06:08:01;;;;;;;9.32;2.78;;;2.80;99.90;;;;;;5048888;28;20036;-85
2021/01/13 06:10:35;;;;;;;8.82;2.17;;;2.80;99.90;;;;;;5052715;28;20178;-84
2021/01/13 06:13:03;;;;;;;8.90;2.55;;;2.80;99.90;;;;;;5055211;28;20097;-84
2021/01/13 06:15:30;;;;;;;6.53;2.10;;;2.80;99.90;;;;;;5052474;28;20486;-84
2021/01/13 06:17:57;;;;;;;8.73;2.25;;;2.70;99.90;;;;;;5050316;28;20518;-85
2021/01/13 06:20:28;;;;;;;5.65;2.38;;;2.70;99.90;;;;;;5062779;28;20039;-83
2021/01/13 06:22:57;;;;;;;9.68;2.40;;;2.80;99.90;;;;;;5059862;28;20038;-84
2021/01/13 06:25:28;;;;;;;13.77;3.35;;;2.80;99.90;;;;;;5051464;28;20037;-84
2021/01/13 06:28:27;;;;;;;8.57;2.40;;;2.70;99.90;;;;;;5061767;28;20029;-84
2021/01/13 06:31:04;;;;;;;5.65;1.95;;;2.80;99.90;;;;;;5050861;28;20059;-83
2021/01/13 06:33:34;;;;;;;14.20;2.05;;;2.70;99.90;;;;;;5054705;28;20032;-83
2021/01/13 06:36:07;;;;;;;7.13;1.95;;;2.80;99.90;;;;;;5053252;28;20031;-83
2021/01/13 06:38:42;;;;;;;6.40;1.90;;;2.90;99.90;;;;;;5053552;28;20049;-76
2021/01/13 06:41:08;;;;;;;5.70;1.85;;;2.80;99.90;;;;;;5062997;28;20052;-77
2021/01/13 06:43:34;;;;;;;8.52;2.00;;;2.80;99.90;;;;;;5054274;28;20045;-78
2021/01/13 06:46:00;;;;;;;13.85;2.53;;;2.80;99.90;;;;;;5049376;28;20402;-77
2021/01/13 06:48:29;;;;;;;11.50;2.25;;;2.80;99.90;;;;;;5053686;28;20021;-77
2021/01/13 06:50:56;;;;;;;8.73;2.33;;;2.90;99.90;;;;;;5048969;28;20040;-77
2021/01/13 06:53:23;;;;;;;8.07;2.70;;;2.90;99.90;;;;;;5064586;28;20033;-77
2021/01/13 06:55:50;;;;;;;6.93;2.25;;;2.90;99.90;;;;;;5061673;28;20024;-77
2021/01/13 06:58:17;;;;;;;9.75;2.53;;;2.90;99.90;;;;;;5054678;28;20021;-77
2021/01/13 07:00:47;;;;;;;9.18;2.10;;;3.00;99.90;;;;;;5069750;28;20036;-78
2021/01/13 07:03:18;;;;;;;8.63;2.00;;;3.00;99.90;;;;;;5062560;28;20387;-77
2021/01/13 07:05:44;;;;;;;9.30;2.33;;;2.90;99.90;;;;;;5052587;28;20521;-76
2021/01/13 07:08:09;;;;;;;7.07;2.38;;;3.00;99.90;;;;;;5052751;28;20032;-77
2021/01/13 07:10:37;;;;;;;4.10;1.80;;;3.00;99.90;;;;;;5073937;28;20024;-77
2021/01/13 07:13:05;;;;;;;6.70;2.13;;;3.10;99.90;;;;;;5057799;28;20119;-78
2021/01/13 07:15:33;;;;;;;6.60;2.42;;;3.00;99.90;;;;;;5055647;28;20056;-79
2021/01/13 07:18:01;;;;;;;10.35;2.50;;;3.10;99.90;;;;;;5058264;28;20458;-78
2021/01/13 07:20:29;;;;;;;5.15;1.98;;;3.10;99.90;;;;;;5053305;28;20033;-77
2021/01/13 07:22:55;;;;;;;6.57;1.83;;;3.10;99.90;;;;;;5055458;28;20040;-75
2021/01/13 07:25:23;;;;;;;8.13;1.98;;;3.10;99.90;;;;;;5046691;28;20129;-76
2021/01/13 07:27:50;;;;;;;10.15;2.42;;;3.10;99.90;;;;;;5062598;28;20111;-76
2021/01/13 07:30:18;;;;;;;6.90;1.70;;;3.10;99.90;;;;;;5059687;28;20491;-75
2021/01/13 07:32:51;;;;;;;8.68;1.85;;;3.10;99.90;;;;;;5067687;28;20056;-75
2021/01/13 07:35:22;;;;;;;7.57;2.10;;;3.30;99.90;;;;;;5069295;28;20035;-76
2021/01/13 07:37:53;;;;;;;8.10;1.98;;;3.30;99.90;;;;;;5068853;28;20653;-76
2021/01/13 07:40:32;;;;;;;8.10;2.43;;;3.30;99.90;;;;;;5068444;28;20044;-76
2021/01/13 07:43:05;;;;;;;4.82;2.28;;;3.30;99.90;;;;;;5063455;28;20048;-76
2021/01/13 07:45:39;;;;;;;6.43;1.95;;;3.30;99.90;;;;;;5068179;28;20029;-76
2021/01/13 07:48:11;;;;;;;7.85;1.92;;;3.30;99.90;;;;;;5067900;28;20063;-76
2021/01/13 07:50:49;;;;;;;8.32;1.55;;;3.30;99.90;;;;;;5065434;28;20028;-76
2021/01/13 07:53:24;;;;;;;6.57;1.90;;;3.30;99.90;;;;;;5064860;28;20021;-74
2021/01/13 07:55:57;;;;;;;6.82;1.70;;;3.40;99.90;;;;;;5066036;28;20657;-78
2021/01/13 07:58:25;;;;;;;8.68;1.70;;;3.40;99.90;;;;;;5067648;28;20036;-77
2021/01/13 08:01:01;;;;;;;8.68;2.00;;;3.40;99.90;;;;;;5064784;28;20020;-76
2021/01/13 08:04:10;;;;;;;9.10;1.55;;;3.40;99.90;;;;;;5068202;28;20024;-78
2021/01/13 08:06:46;;;;;;;8.77;1.75;;;3.40;99.90;;;;;;5064652;28;20051;-77
2021/01/13 08:09:14;;;;;;;6.40;1.80;;;3.40;99.90;;;;;;5065767;28;20025;-77
2021/01/13 08:11:46;;;;;;;5.45;1.80;;;3.50;99.90;;;;;;5065273;28;20027;-77
2021/01/13 08:14:28;;;;;;;;;;;3.40;99.90;;;;;;5064710;28;20119;-76
2021/01/13 08:17:03;;;;;;;5.07;1.50;;;3.50;99.90;;;;;;5062590;28;20046;-73
2021/01/13 08:20:10;;;;;;;6.30;1.65;;;3.40;99.90;;;;;;5065502;28;20024;-73
2021/01/13 08:22:35;;;;;;;8.32;2.00;;;3.50;99.90;;;;;;5065159;28;20061;-77
2021/01/13 08:25:12;;;;;;;3.95;1.38;;;3.40;99.90;;;;;;5063928;28;20037;-75
2021/01/13 08:27:38;;;;;;;5.18;1.75;;;3.50;99.90;;;;;;5066838;28;20032;-76
2021/01/13 08:30:04;;;;;;;6.47;1.95;;;3.50;99.90;;;;;;5066278;28;20108;-75
2021/01/13 08:32:41;;;;;;;11.23;2.00;;;3.50;99.90;;;;;;5064460;28;20036;-76
2021/01/13 08:35:08;;;;;;;7.60;1.80;;;3.50;99.90;;;;;;5066654;28;20160;-75
2021/01/13 08:37:34;;;;;;;6.15;1.50;;;3.50;99.90;;;;;;5067955;28;20104;-75
2021/01/13 08:40:27;;;;;;;5.18;1.65;;;3.50;99.90;;;;;;5065278;28;20025;-74
2021/01/13 08:43:13;;;;;;;5.28;1.70;;;3.60;99.90;;;;;;5062600;28;20045;-75
2021/01/13 08:45:50;;;;;;;7.53;1.67;;;3.50;99.90;;;;;;5065506;28;20040;-75
2021/01/13 08:48:21;;;;;;;3.80;1.35;;;3.50;99.90;;;;;;5067223;28;20613;-76
2021/01/13 08:51:08;;;;;;;6.32;1.45;;;3.50;99.90;;;;;;5065239;28;20079;-75
2021/01/13 08:53:37;;;;;;;3.97;1.58;;;3.60;99.90;;;;;;5065785;28;20033;-75
2021/01/13 08:56:03;;;;;;;8.38;1.98;;;3.60;99.90;;;;;;5065192;28;20021;-76
2021/01/13 08:58:33;;;;;;;7.50;1.60;;;3.70;99.90;;;;;;5066107;28;20028;-76
2021/01/13 09:01:10;;;;;;;7.15;1.98;;;3.80;99.90;;;;;;5066551;28;20029;-77
2021/01/13 09:03:41;;;;;;;4.55;1.40;;;3.80;99.90;;;;;;5062378;28;20025;-75
2021/01/13 09:06:23;;;;;;;6.53;1.83;;;3.80;99.90;;;;;;5066197;28;20025;-77
2021/01/13 09:08:50;;;;;;;4.40;1.75;;;3.80;99.90;;;;;;5058524;28;20503;-73
2021/01/13 09:11:33;;;;;;;4.40;1.67;;;3.90;99.90;;;;;;5062861;28;20074;-74
2021/01/13 09:14:17;;;;;;;3.63;1.88;;;3.90;99.90;;;;;;5063592;28;22051;-74
2021/01/13 09:16:51;;;;;;;5.38;1.50;;;3.90;99.90;;;;;;5062717;28;20032;-74
2021/01/13 09:19:38;;;;;;;9.15;2.30;;;3.90;99.90;;;;;;5059223;28;20028;-74
2021/01/13 09:22:07;;;;;;;13.48;1.70;;;3.90;99.90;;;;;;5067068;28;20050;-74
2021/01/13 09:24:41;;;;;;;5.90;1.67;;;3.80;99.90;;;;;;5055813;28;20055;-74
2021/01/13 09:27:09;;;;;;;4.55;1.85;;;3.90;99.90;;;;;;5059007;28;20025;-73
2021/01/13 09:29:51;;;;;;;3.88;1.40;;;3.90;99.90;;;;;;5064517;28;20115;-74
2021/01/13 09:32:19;;;;;;;6.18;1.65;;;3.90;99.90;;;;;;5057360;28;20433;-74
2021/01/13 09:34:46;;;;;;;10.20;1.75;;;3.90;99.90;;;;;;5064739;28;20040;-74
2021/01/13 09:37:12;;;;;;;8.55;1.73;;;3.90;99.90;;;;;;5060067;28;20119;-73
2021/01/13 09:39:55;;;;;;;4.05;1.25;;;3.90;99.90;;;;;;5065109;28;20422;-73
2021/01/13 09:42:23;;;;;;;4.93;1.50;;;4.00;99.90;;;;;;5062103;28;20040;-76
2021/01/13 09:45:01;;;;;;;3.88;1.30;;;4.00;99.90;;;;;;5059944;28;20101;-75
2021/01/13 09:47:27;;;;;;;5.82;1.58;;;4.10;99.90;;;;;;5064709;28;20017;-75
2021/01/13 09:49:56;;;;;;;4.53;1.27;;;4.20;99.90;;;;;;5059219;28;20063;-75
2021/01/13 09:52:22;;;;;;;6.15;1.63;;;4.30;99.90;;;;;;5060413;28;20021;-76
2021/01/13 09:54:50;;;;;;;7.00;1.48;;;4.20;99.90;;;;;;5065673;28;20092;-76
2021/01/13 09:57:16;;;;;;;4.35;1.20;;;4.10;99.90;;;;;;5062207;28;20032;-75
2021/01/13 10:00:09;;;;;;;6.32;1.58;;;4.10;99.90;;;;;;5065748;28;20040;-76
2021/01/13 10:02:35;;;;;;;7.03;1.58;;;4.20;99.90;;;;;;5063156;28;20051;-75
2021/01/13 10:05:00;;;;;;;7.03;1.48;;;4.20;99.90;;;;;;5063422;28;20036;-75
2021/01/13 10:07:31;;;;;;;7.28;1.58;;;4.10;99.90;;;;;;5066499;28;20036;-75
2021/01/13 10:09:58;;;;;;;4.47;1.70;;;4.10;99.90;;;;;;5066486;28;20124;-76
2021/01/13 10:12:41;;;;;;;7.53;1.90;;;4.20;99.90;;;;;;5064124;28;20140;-75
2021/01/13 10:15:12;;;;;;;5.95;1.55;;;4.20;99.90;;;;;;5063151;28;20027;-75
2021/01/13 10:17:39;;;;;;;5.25;1.40;;;4.30;99.90;;;;;;5063472;28;20035;-76
2021/01/13 10:20:15;;;;;;;4.03;1.02;;;4.30;99.90;;;;;;5065310;28;20062;-77
2021/01/13 10:22:42;;;;;;;7.78;2.17;;;4.20;99.90;;;;;;5062741;28;20123;-78
2021/01/13 10:25:08;;;;;;;4.80;1.40;;;4.20;99.90;;;;;;5066165;28;20025;-77
2021/01/13 10:27:44;;;;;;;5.15;1.52;;;4.20;99.90;;;;;;5065304;28;20024;-76
2021/01/13 10:30:11;;;;;;;3.80;1.20;;;4.30;99.90;;;;;;5064382;28;20103;-76
2021/01/13 10:32:47;;;;;;;1.90;1.17;;;4.30;99.90;;;;;;5061491;28;20033;-76
2021/01/13 10:35:14;;;;;;;6.13;1.60;;;4.20;99.90;;;;;;5060492;28;20086;-76
2021/01/13 10:37:40;;;;;;;2.78;1.48;;;4.40;99.90;;;;;;5062422;28;20020;-78
2021/01/13 10:40:09;;;;;;;3.22;1.30;;;4.50;99.90;;;;;;5060019;28;20025;-76
2021/01/13 10:42:39;;;;;;;7.20;1.90;;;4.50;99.90;;;;;;5064544;28;20029;-76
2021/01/13 10:45:15;;;;;;;6.32;1.60;;;4.40;99.90;;;;;;5065716;28;20049;-76
2021/01/13 10:47:59;;;;;;;3.83;1.60;;;4.40;99.90;;;;;;5066590;28;20032;-76
2021/01/13 10:50:30;;;;;;;2.92;1.30;;;4.40;99.90;;;;;;5065520;28;20165;-76
2021/01/13 10:53:00;;;;;;;5.07;1.52;;;4.30;99.90;;;;;;5072484;28;20051;-76
2021/01/13 10:55:29;;;;;;;6.10;1.25;;;4.30;99.90;;;;;;5068971;28;20032;-76
2021/01/13 10:57:56;;;;;;;3.10;1.17;;;4.20;99.90;;;;;;5064858;28;20588;-76
2021/01/13 11:00:27;;;;;;;6.63;1.63;;;4.40;99.90;;;;;;5062432;28;20033;-76
2021/01/13 11:02:55;;;;;;;6.13;1.40;;;4.50;99.90;;;;;;5070223;28;20062;-76
2021/01/13 11:05:21;;;;;;;2.78;1.10;;;4.60;99.90;;;;;;5065123;28;20028;-76
2021/01/13 11:07:51;;;;;;;4.40;1.17;;;4.50;99.90;;;;;;5065548;28;20042;-76
2021/01/13 11:10:17;;;;;;;4.63;1.00;;;4.50;99.90;;;;;;5068375;28;20074;-76
2021/01/13 11:12:43;;;;;;;4.60;1.23;;;4.50;99.90;;;;;;5067561;28;20029;-76
2021/01/13 11:15:11;;;;;;;3.10;1.83;;;4.60;99.90;;;;;;5059967;28;20039;-76
2021/01/13 11:17:37;;;;;;;3.97;1.15;;;4.50;99.90;;;;;;5065378;28;20029;-76
2021/01/13 11:20:06;;;;;;;9.23;1.38;;;4.60;99.90;;;;;;5066571;28;20073;-76
2021/01/13 11:22:47;;;;;;;4.20;1.33;;;4.60;99.90;;;;;;5065239;28;20035;-78
2021/01/13 11:26:03;;;;;;;9.55;1.38;;;4.60;99.90;;;;;;5063737;28;20128;-76
2021/01/13 11:28:27;;;;;;;6.68;1.33;;;4.60;99.90;;;;;;5065113;28;20491;-76
2021/01/13 11:30:53;;;;;;;5.25;1.45;;;4.50;99.90;;;;;;5065302;28;20098;-76
2021/01/13 11:33:18;;;;;;;6.88;1.60;;;4.70;99.90;;;;;;5064225;28;20491;-75
2021/01/13 11:35:46;;;;;;;7.20;1.80;;;4.70;99.90;;;;;;5061765;28;20052;-76
2021/01/13 11:38:21;;;;;;;6.57;1.48;;;4.60;99.90;;;;;;5063811;28;20088;-76
2021/01/13 11:41:01;;;;;;;5.60;1.50;;;4.50;99.90;;;;;;5067492;28;20059;-76
2021/01/13 11:44:07;;;;;;;1.35;1.10;;;4.60;99.90;;;;;;5064271;28;20040;-76
2021/01/13 11:46:43;;;;;;;4.32;1.42;;;4.50;99.90;;;;;;5066427;28;20032;-76
2021/01/13 11:49:14;;;;;;;5.03;0.90;;;4.60;99.90;;;;;;5069489;28;20036;-76
2021/01/13 11:51:49;;;;;;;4.95;1.30;;;4.60;99.90;;;;;;5071339;28;20102;-78
2021/01/13 11:54:26;;;;;;;2.60;1.08;;;4.50;99.90;;;;;;5071552;28;20032;-75
2021/01/13 11:56:51;;;;;;;5.88;1.42;;;4.70;99.90;;;;;;5071833;28;20025;-76
2021/01/13 11:59:30;;;;;;;5.78;1.77;;;4.70;99.90;;;;;;5069048;28;20092;-76
2021/01/13 12:01:59;;;;;;;6.63;2.00;;;4.70;99.90;;;;;;5068332;28;20032;-76
2021/01/13 12:04:25;;;;;;;2.75;1.25;;;4.70;99.90;;;;;;5071341;28;20029;-76
2021/01/13 12:06:58;;;;;;;7.30;1.48;;;4.80;99.90;;;;;;5059773;28;20039;-76
2021/01/13 12:09:23;;;;;;;7.18;1.50;;;4.80;99.90;;;;;;5066405;28;20032;-76
2021/01/13 12:11:49;;;;;;;7.25;1.45;;;4.70;99.90;;;;;;5066413;28;20090;-75
2021/01/13 12:14:15;;;;;;;4.60;1.30;;;4.70;99.90;;;;;;5066709;28;20032;-75
2021/01/13 12:16:40;;;;;;;3.30;0.90;;;4.70;99.90;;;;;;5065730;28;20051;-78
2021/01/13 12:19:06;;;;;;;3.50;1.35;;;4.70;99.90;;;;;;5065146;28;20037;-80
2021/01/13 12:21:33;;;;;;;3.53;1.30;;;4.60;99.90;;;;;;5066992;28;20985;-76
2021/01/13 12:24:13;;;;;;;6.85;1.60;;;4.70;99.90;;;;;;5067177;28;20032;-77
2021/01/13 12:26:39;;;;;;;6.20;1.50;;;4.70;99.90;;;;;;5074405;28;21244;-75
2021/01/13 12:29:08;;;;;;;3.28;1.20;;;4.80;99.90;;;;;;5066884;28;20033;-74
2021/01/13 12:31:44;;;;;;;3.75;1.05;;;4.90;99.90;;;;;;5065082;28;20024;-75
2021/01/13 12:34:21;;;;;;;4.45;1.23;;;4.80;99.90;;;;;;5071034;28;20040;-75
2021/01/13 12:36:52;;;;;;;6.65;1.45;;;4.70;99.90;;;;;;5065390;28;20501;-75
2021/01/13 12:39:26;;;;;;;8.48;1.58;;;4.80;99.90;;;;;;5068411;28;20024;-75
2021/01/13 12:41:53;;;;;;;6.35;1.88;;;4.80;99.90;;;;;;5063591;28;20111;-75
2021/01/13 12:44:20;;;;;;;5.30;1.25;;;4.80;99.90;;;;;;5067475;28;20102;-75
2021/01/13 12:46:52;;;;;;;1.90;0.90;;;4.80;99.90;;;;;;5069061;28;20035;-74
2021/01/13 12:49:19;;;;;;;3.15;1.38;;;4.80;99.90;;;;;;5066754;28;20024;-75
2021/01/13 12:51:50;;;;;;;7.05;1.30;;;5.00;99.90;;;;;;5070446;28;20024;-75
2021/01/13 12:54:16;;;;;;;7.95;1.48;;;5.00;99.90;;;;;;5073014;28;20032;-75
2021/01/13 12:56:41;;;;;;;5.90;1.45;;;5.00;99.90;;;;;;5071078;28;20785;-75
2021/01/13 12:59:06;;;;;;;4.00;1.83;;;5.00;99.90;;;;;;5068504;28;20032;-74
2021/01/13 13:01:40;;;;;;;7.63;1.67;;;4.90;99.90;;;;;;5064006;28;20151;-75
2021/01/13 13:04:06;;;;;;;6.13;1.70;;;4.80;99.90;;;;;;5067421;28;20032;-74
2021/01/13 13:06:36;;;;;;;2.95;1.52;;;4.80;99.90;;;;;;5067779;28;20075;-74
2021/01/13 13:09:04;;;;;;;3.95;1.27;;;4.90;99.90;;;;;;5067034;28;20467;-75
2021/01/13 13:11:30;;;;;;;6.05;1.50;;;5.00;99.90;;;;;;5065842;28;20083;-75
2021/01/13 13:13:57;;;;;;;5.53;1.75;;;5.00;99.90;;;;;;5067446;28;20032;-74
2021/01/13 13:16:24;;;;;;;5.03;1.50;;;5.00;99.90;;;;;;5065462;28;20149;-75
2021/01/13 13:18:52;;;;;;;6.65;1.42;;;4.90;99.90;;;;;;5067366;28;20041;-78
2021/01/13 13:21:20;;;;;;;5.18;1.73;;;4.80;99.90;;;;;;5070111;28;20059;-76